Time;durP1;ratioP1;P1;durP2;ratioP2;P2;SDS_P1;SDS_P2;PMS_P1;PMS_P2;Temp;Humidity;BMP_temperature;BMP_pressure;BME280_temperature;BME280_humidity;BME280_pressure;Samples;Min_cycle;Max_cycle;Signal;HPM_P1;HPM_P2
2021/03/20 00:04:14;;;;;;;;;;;;;;;-1.39;62.53;102918.50;10059247;28;20051;-66
2021/03/20 00:09:13;;;;;;;12.23;4.45;;;;;;;-1.35;62.22;102923.31;10062015;28;20283;-68
2021/03/20 00:14:12;;;;;;;9.00;3.75;;;;;;;-1.28;62.50;102934.16;10054702;28;20078;-67
2021/03/20 00:19:08;;;;;;;8.38;3.97;;;;;;;-1.16;62.32;102938.06;10059631;28;20054;-67
2021/03/20 00:24:05;;;;;;;9.88;4.15;;;;;;;-1.14;61.69;102925.28;10056588;29;20071;-66
2021/03/20 00:29:01;;;;;;;10.80;4.28;;;;;;;-1.06;62.25;102922.50;10045867;29;20463;-68
2021/03/20 00:33:58;;;;;;;12.73;4.47;;;;;;;-0.99;63.27;102937.88;10064171;28;20719;-68
2021/03/20 00:38:53;;;;;;;11.25;4.22;;;;;;;-1.00;62.36;102930.81;10059341;28;20047;-68
2021/03/20 00:43:49;;;;;;;12.95;4.10;;;;;;;-0.98;63.21;102931.47;10055773;28;20057;-65
2021/03/20 00:48:45;;;;;;;11.30;4.05;;;;;;;-0.93;62.82;102931.72;10055128;28;20039;-68
2021/03/20 00:53:41;;;;;;;9.05;3.78;;;;;;;-0.98;63.43;102939.53;10061500;29;20054;-68
2021/03/20 00:58:41;;;;;;;10.52;3.92;;;;;;;-1.02;63.01;102938.22;10063084;28;20039;-65
2021/03/20 01:03:38;;;;;;;10.55;3.60;;;;;;;-1.18;62.34;102934.72;10056278;28;20143;-67
2021/03/20 01:08:35;;;;;;;7.57;3.80;;;;;;;-1.17;62.61;102939.06;10054497;28;20047;-68
2021/03/20 01:13:31;;;;;;;10.82;3.38;;;;;;;-1.25;62.21;102933.81;10052880;29;20075;-69
2021/03/20 01:18:27;;;;;;;9.95;3.28;;;;;;;-1.30;61.96;102925.44;10062014;28;20070;-68
2021/03/20 01:23:24;;;;;;;6.72;3.40;;;;;;;-1.31;61.78;102923.78;10057103;28;20061;-67
2021/03/20 01:28:31;;;;;;;9.23;3.00;;;;;;;-1.23;62.19;102926.41;10063440;28;20054;-68
2021/03/20 01:33:28;;;;;;;9.93;3.13;;;;;;;-1.19;61.71;102927.66;10056648;28;20106;-67
2021/03/20 01:38:24;;;;;;;7.65;2.00;;;;;;;-0.85;59.19;102904.78;10050626;28;20163;-69
2021/03/20 01:43:23;;;;;;;7.30;2.45;;;;;;;-0.86;58.38;102908.47;10054300;28;20550;-69
2021/03/20 01:48:28;;;;;;;10.43;2.30;;;;;;;-0.84;59.38;102919.88;10058359;28;20075;-69
2021/03/20 01:53:33;;;;;;;7.25;2.35;;;;;;;-0.71;61.00;102925.41;10060662;28;20115;-69
2021/03/20 01:58:31;;;;;;;7.43;1.90;;;;;;;-0.77;61.65;102910.03;10050977;28;20047;-68
2021/03/20 02:03:29;;;;;;;5.95;1.88;;;;;;;-0.70;62.94;102899.38;10056547;28;20074;-69
2021/03/20 02:08:25;;;;;;;5.95;1.65;;;;;;;-0.43;58.76;102889.75;10053599;29;20103;-67
2021/03/20 02:13:36;;;;;;;7.55;1.88;;;;;;;-0.29;56.74;102888.03;10062830;28;20172;-67
2021/03/20 02:18:44;;;;;;;7.47;1.95;;;;;;;-0.28;58.09;102889.69;10061724;28;20035;-69
2021/03/20 02:24:07;;;;;;;4.32;1.58;;;;;;;-0.19;57.53;102890.41;10065770;28;20052;-68
2021/03/20 02:29:31;;;;;;;5.72;1.83;;;;;;;-0.14;57.61;102887.97;10068672;28;20047;-68
2021/03/20 02:34:33;;;;;;;4.53;1.40;;;;;;;-0.20;56.43;102894.13;10069109;28;20077;-68
2021/03/20 02:39:42;;;;;;;8.33;1.40;;;;;;;-0.19;57.35;102890.41;10061958;28;20051;-68
2021/03/20 02:44:48;;;;;;;4.95;1.20;;;;;;;-0.27;58.39;102876.06;10057342;28;20570;-64
2021/03/20 02:49:58;;;;;;;9.65;1.60;;;;;;;-0.17;55.64;102874.91;10068127;29;20098;-67
2021/03/20 02:55:08;;;;;;;4.25;1.30;;;;;;;-0.13;56.44;102876.19;10057742;28;20055;-66
2021/03/20 03:00:20;;;;;;;4.28;1.20;;;;;;;-0.23;55.72;102869.28;10066420;28;20058;-66
2021/03/20 03:05:21;;;;;;;5.50;1.38;;;;;;;-0.17;55.34;102866.84;10068391;28;20074;-66
2021/03/20 03:10:23;;;;;;;4.90;1.10;;;;;;;-0.17;54.27;102850.72;10063861;28;20149;-68
2021/03/20 03:15:26;;;;;;;6.05;1.77;;;;;;;-0.22;54.59;102857.50;10060345;28;20489;-68
2021/03/20 03:20:26;;;;;;;6.43;1.27;;;;;;;-0.23;54.74;102853.16;10070305;28;20621;-65
2021/03/20 03:25:26;;;;;;;5.53;1.35;;;;;;;-0.15;54.56;102851.34;10061520;28;20212;-68
2021/03/20 03:30:24;;;;;;;5.68;1.13;;;;;;;-0.17;54.57;102845.34;10055141;28;20051;-66
2021/03/20 03:35:27;;;;;;;3.67;0.90;;;;;;;-0.11;53.58;102844.56;10064681;28;20062;-68
2021/03/20 03:40:43;;;;;;;2.88;0.82;;;;;;;-0.15;53.88;102854.03;10058227;28;20146;-68
2021/03/20 03:45:44;;;;;;;4.20;1.10;;;;;;;-0.20;53.38;102853.78;10065245;28;20522;-67
2021/03/20 03:50:41;;;;;;;3.63;1.15;;;;;;;-0.22;53.11;102864.72;10059772;28;20071;-66
2021/03/20 03:55:38;;;;;;;5.38;0.82;;;;;;;-0.23;53.76;102863.91;10045350;29;20044;-66
2021/03/20 04:00:46;;;;;;;8.57;0.90;;;;;;;-0.28;53.66;102869.03;10055071;28;20051;-67
2021/03/20 04:06:09;;;;;;;3.85;1.20;;;;;;;-0.25;54.38;102847.13;10063692;28;20048;-68
2021/03/20 04:11:15;;;;;;;5.60;1.20;;;;;;;-0.08;54.41;102844.16;10060579;28;20468;-69
2021/03/20 04:16:14;;;;;;;4.45;1.50;;;;;;;-0.08;53.49;102836.09;10063353;28;20582;-68
2021/03/20 04:21:29;;;;;;;4.05;0.90;;;;;;;-0.02;54.77;102838.03;10054872;28;20051;-68
2021/03/20 04:26:35;;;;;;;4.55;0.80;;;;;;;-0.11;53.53;102834.63;10061386;28;20543;-68
2021/03/20 04:31:43;;;;;;;6.97;1.13;;;;;;;-0.29;53.47;102820.81;10067206;28;20047;-68
2021/03/20 04:36:45;;;;;;;6.97;1.20;;;;;;;-0.32;53.60;102831.97;10061040;28;20087;-68
2021/03/20 04:41:42;;;;;;;3.80;0.85;;;;;;;-0.24;54.15;102835.34;10059187;28;20083;-67
2021/03/20 04:46:40;;;;;;;3.53;1.05;;;;;;;-0.25;54.21;102844.44;10056408;28;20606;-67
2021/03/20 04:51:45;;;;;;;8.98;2.20;;;;;;;-0.19;53.89;102847.38;10052801;28;20047;-67
2021/03/20 04:57:01;;;;;;;5.07;1.05;;;;;;;-0.16;54.25;102842.47;10047547;29;20102;-68
2021/03/20 05:02:03;;;;;;;5.72;0.98;;;;;;;-0.24;54.37;102835.34;10058930;28;20051;-68
2021/03/20 05:07:01;;;;;;;4.70;0.70;;;;;;;-0.38;54.81;102838.94;10050174;28;20040;-68
2021/03/20 05:12:01;;;;;;;6.55;1.05;;;;;;;-0.32;54.54;102827.44;10063505;28;20047;-68
2021/03/20 05:17:00;;;;;;;5.43;0.80;;;;;;;-0.43;54.70;102825.25;10056208;28;20047;-68
2021/03/20 05:21:57;;;;;;;3.42;1.08;;;;;;;-0.57;54.76;102823.47;10050924;28;20783;-69
2021/03/20 05:26:53;;;;;;;8.63;1.30;;;;;;;-0.61;55.14;102827.56;10059173;28;20145;-69
2021/03/20 05:31:50;;;;;;;6.10;1.23;;;;;;;-0.57;55.40;102823.47;10059463;28;20043;-68
2021/03/20 05:36:47;;;;;;;3.13;0.88;;;;;;;-0.69;56.01;102825.84;10053992;28;20039;-69
2021/03/20 05:42:01;;;;;;;5.35;1.38;;;;;;;-0.74;56.16;102823.72;10058641;28;20118;-68
2021/03/20 05:47:23;;;;;;;5.05;1.20;;;;;;;-0.73;56.56;102830.75;10056078;28;20051;-67
2021/03/20 05:52:25;;;;;;;3.95;1.10;;;;;;;-0.61;56.05;102843.69;10065412;28;20059;-67
2021/03/20 05:57:25;;;;;;;5.68;1.63;;;;;;;-0.62;55.96;102852.78;10069657;28;20043;-67
2021/03/20 06:02:28;;;;;;;4.43;1.13;;;;;;;-0.54;55.96;102852.63;10055858;29;20051;-67
2021/03/20 06:07:46;;;;;;;9.73;1.83;;;;;;;-0.38;56.16;102844.31;10057961;29;20047;-68
2021/03/20 06:13:02;;;;;;;4.85;1.05;;;;;;;-0.27;56.11;102841.13;10061974;28;20051;-67
2021/03/20 06:18:06;;;;;;;6.03;1.25;;;;;;;-0.29;54.99;102818.97;10045635;28;20511;-67
2021/03/20 06:23:26;;;;;;;6.97;1.30;;;;;;;-0.33;55.19;102835.66;10056740;29;20138;-68
2021/03/20 06:28:29;;;;;;;4.53;1.40;;;;;;;-0.25;55.85;102841.75;10061874;28;20047;-67
2021/03/20 06:33:31;;;;;;;7.75;3.30;;;;;;;-0.31;56.06;102849.75;10060685;28;20051;-67
2021/03/20 06:38:37;;;;;;;3.83;1.13;;;;;;;-0.01;55.37;102853.13;10051136;29;20055;-68
2021/03/20 06:43:38;;;;;;;2.75;1.15;;;;;;;-0.04;56.03;102848.16;10064577;28;20516;-66
2021/03/20 06:48:34;;;;;;;5.60;1.15;;;;;;;-0.25;55.70;102835.56;10065984;28;20487;-68
2021/03/20 06:54:06;;;;;;;3.63;1.35;;;;;;;-0.01;55.89;102831.59;10072004;28;20081;-67
2021/03/20 06:59:11;;;;;;;4.60;1.45;;;;;;;-0.07;56.19;102829.69;10019447;28;20094;-67
2021/03/20 07:04:51;;;;;;;5.35;1.30;;;;;;;0.06;56.06;102835.16;10066184;28;20511;-69
2021/03/20 07:09:51;;;;;;;6.78;1.40;;;;;;;0.08;56.00;102821.53;10060450;28;20533;-68
2021/03/20 07:14:53;;;;;;;4.47;1.50;;;;;;;0.09;55.88;102824.00;10041513;29;20050;-68
2021/03/20 07:20:10;;;;;;;5.30;1.40;;;;;;;-0.04;55.26;102829.31;10063579;28;20048;-64
2021/03/20 07:25:31;;;;;;;6.43;1.67;;;;;;;-0.02;55.90;102811.94;10055519;28;20047;-68
2021/03/20 07:30:34;;;;;;;5.13;1.42;;;;;;;0.06;55.46;102812.84;10052299;29;20107;-68
2021/03/20 07:35:34;;;;;;;5.83;1.47;;;;;;;0.06;55.17;102805.59;10063564;28;20503;-68
2021/03/20 07:40:33;;;;;;;6.57;1.92;;;;;;;0.39;54.79;102796.88;10058285;28;20107;-67
2021/03/20 07:45:29;;;;;;;8.43;1.58;;;;;;;0.51;54.42;102773.78;10047526;28;20046;-67
2021/03/20 07:50:30;;;;;;;4.82;1.38;;;;;;;0.39;55.39;102770.81;10062831;28;20063;-67
2021/03/20 07:55:26;;;;;;;3.95;1.10;;;;;;;0.61;53.41;102787.69;10060968;28;20053;-68
2021/03/20 08:00:30;;;;;;;3.70;1.10;;;;;;;0.58;52.80;102789.94;10065256;28;20455;-67
2021/03/20 08:05:31;;;;;;;3.55;0.80;;;;;;;0.43;53.59;102776.63;10055548;28;20051;-68
2021/03/20 08:10:33;;;;;;;6.93;0.88;;;;;;;0.65;52.91;102779.19;10056265;28;20050;-68
2021/03/20 08:15:29;;;;;;;5.15;0.98;;;;;;;0.84;52.97;102794.63;10049655;29;20044;-69
2021/03/20 08:20:26;;;;;;;5.57;1.20;;;;;;;0.93;52.57;102781.78;10060213;28;20059;-69
2021/03/20 08:25:40;;;;;;;3.65;1.08;;;;;;;0.91;52.22;102794.66;10047636;29;20106;-68
2021/03/20 08:31:07;;;;;;;5.82;1.00;;;;;;;1.16;51.55;102778.75;10059143;28;20107;-69
2021/03/20 08:36:21;;;;;;;7.22;1.60;;;;;;;1.29;50.84;102781.47;10047214;29;20044;-68
2021/03/20 08:41:41;;;;;;;5.45;1.10;;;;;;;1.33;50.60;102769.25;10049761;29;20757;-64
2021/03/20 08:46:52;;;;;;;4.18;1.23;;;;;;;1.67;49.84;102772.78;10044934;28;20035;-70
2021/03/20 08:52:19;;;;;;;7.80;1.20;;;;;;;1.83;49.62;102772.38;10043840;29;20546;-69
2021/03/20 08:57:37;;;;;;;5.57;1.60;;;;;;;1.71;48.55;102774.03;10050796;28;20447;-68
2021/03/20 09:02:39;;;;;;;7.00;1.30;;;;;;;1.42;48.02;102769.88;10046545;29;20178;-69
2021/03/20 09:07:44;;;;;;;;;;;;;;;1.46;47.86;102765.72;10040638;28;20146;-68
2021/03/20 09:12:46;;;;;;;4.68;1.00;;;;;;;1.49;47.54;102770.72;10047552;28;20024;-67
2021/03/20 09:17:44;;;;;;;4.55;0.95;;;;;;;1.70;46.76;102766.97;10051997;28;20130;-66
2021/03/20 09:22:45;;;;;;;5.18;0.93;;;;;;;1.70;47.83;102766.97;10043398;29;20050;-65
2021/03/20 09:28:06;;;;;;;8.75;1.88;;;;;;;1.78;46.37;102769.44;10034988;29;20099;-67
2021/03/20 09:33:12;;;;;;;6.00;1.30;;;;;;;1.95;46.28;102764.47;10046350;29;20047;-68
2021/03/20 09:38:09;;;;;;;5.22;1.10;;;;;;;1.98;45.93;102763.22;10041248;28;20045;-65
2021/03/20 09:43:17;;;;;;;2.63;0.90;;;;;;;1.94;45.66;102759.28;10050216;29;20051;-66
2021/03/20 09:48:43;;;;;;;6.15;1.05;;;;;;;2.22;45.82;102743.63;10055833;28;20078;-67
2021/03/20 09:53:39;;;;;;;7.65;1.42;;;;;;;2.29;45.71;102739.03;10055824;28;21796;-67
2021/03/20 09:58:37;;;;;;;2.08;0.73;;;;;;;2.10;46.78;102745.34;10047692;29;20107;-66
2021/03/20 10:03:41;;;;;;;4.53;1.73;;;;;;;2.10;47.92;102723.75;10045058;28;20086;-66
2021/03/20 10:08:43;;;;;;;6.30;1.33;;;;;;;2.09;47.67;102716.72;10037673;28;20551;-65
2021/03/20 10:13:42;;;;;;;3.80;1.30;;;;;;;2.18;48.07;102720.84;10035700;29;20047;-67
2021/03/20 10:19:08;;;;;;;7.78;2.13;;;;;;;2.54;47.86;102708.63;10042088;29;20412;-67
2021/03/20 10:24:19;;;;;;;6.28;1.80;;;;;;;2.82;47.56;102696.66;10046461;29;20098;-67
2021/03/20 10:29:18;;;;;;;4.05;1.20;;;;;;;2.93;46.78;102695.97;10043495;29;20125;-67
2021/03/20 10:34:20;;;;;;;6.13;2.08;;;;;;;3.09;47.06;102687.31;10053883;28;20047;-68
2021/03/20 10:39:24;;;;;;;5.85;1.90;;;;;;;2.93;47.35;102682.44;10053092;28;20134;-67
2021/03/20 10:44:22;;;;;;;;;;;;;;;3.27;47.49;102685.72;10053938;28;20060;-66
2021/03/20 10:49:23;;;;;;;6.55;2.67;;;;;;;3.27;48.05;102681.16;10056222;29;19926;-68
2021/03/20 10:54:32;;;;;;;5.95;2.10;;;;;;;3.39;48.72;102678.56;10052501;29;20094;-67
2021/03/20 10:59:28;;;;;;;5.50;2.17;;;;;;;3.53;48.73;102666.56;10049250;29;20058;-67
2021/03/20 11:04:28;;;;;;;7.90;1.90;;;;;;;3.69;47.87;102645.38;10045379;28;20734;-67
2021/03/20 11:09:27;;;;;;;7.05;2.25;;;;;;;3.82;48.31;102653.38;10056275;28;20043;-67
2021/03/20 11:14:23;;;;;;;7.22;2.45;;;;;;;3.67;48.40;102655.63;10049305;28;20535;-67
2021/03/20 11:19:40;;;;;;;5.80;2.60;;;;;;;3.92;48.22;102645.56;10053974;29;20111;-65
2021/03/20 11:24:37;;;;;;;8.35;3.20;;;;;;;4.21;47.89;102629.59;10048671;29;20079;-66
2021/03/20 11:29:33;;;;;;;7.22;2.88;;;;;;;4.07;49.13;102625.41;10051609;29;20702;-67
2021/03/20 11:34:39;;;;;;;6.63;2.80;;;;;;;4.36;48.15;102619.19;10068440;28;20094;-66
2021/03/20 11:39:35;;;;;;;5.70;2.05;;;;;;;4.51;47.83;102620.66;10062436;28;20574;-66
2021/03/20 11:44:35;;;;;;;7.00;2.33;;;;;;;4.69;48.68;102601.63;10065654;28;20093;-67
2021/03/20 11:49:51;;;;;;;6.82;2.88;;;;;;;4.85;48.01;102595.53;10062187;29;20044;-65
2021/03/20 11:54:56;;;;;;;9.02;4.10;;;;;;;4.69;50.50;102588.06;10057256;28;20146;-67
2021/03/20 11:59:52;;;;;;;9.57;3.88;;;;;;;4.90;49.91;102578.56;10063483;28;20134;-67
2021/03/20 12:04:48;;;;;;;6.55;2.67;;;;;;;4.99;50.43;102568.16;10056565;28;20047;-67
2021/03/20 12:09:44;;;;;;;6.75;2.53;;;;;;;4.89;50.61;102562.53;10048775;28;20039;-66
2021/03/20 12:14:43;;;;;;;5.82;2.53;;;;;;;4.78;49.96;102550.59;10054804;28;20417;-64
2021/03/20 12:20:00;;;;;;;6.30;3.28;;;;;;;4.78;50.46;102540.59;10060550;28;20047;-67
2021/03/20 12:25:32;;;;;;;6.07;2.58;;;;;;;4.50;52.43;102543.94;10057312;28;20107;-67
2021/03/20 12:30:33;;;;;;;5.93;3.05;;;;;;;4.58;53.61;102526.56;10032393;28;20083;-67
2021/03/20 12:35:31;;;;;;;9.23;3.58;;;;;;;4.35;55.15;102511.91;10056596;28;20142;-66
2021/03/20 12:40:27;;;;;;;6.88;3.50;;;;;;;4.36;55.21;102500.03;10047490;28;20118;-63
2021/03/20 12:45:30;;;;;;;9.38;4.40;;;;;;;4.40;55.74;102484.94;10047687;28;20051;-67
2021/03/20 12:50:43;;;;;;;10.88;4.10;;;;;;;4.42;55.94;102463.88;10043170;28;20058;-65
2021/03/20 12:55:39;;;;;;;6.50;3.28;;;;;;;4.57;56.20;102462.56;10051475;28;20452;-65
2021/03/20 13:00:35;;;;;;;7.63;3.58;;;;;;;4.64;56.40;102460.56;10046264;28;20074;-67
2021/03/20 13:05:35;;;;;;;10.27;3.88;;;;;;;4.68;56.08;102448.22;10046925;28;20067;-67
2021/03/20 13:10:31;;;;;;;9.10;4.72;;;;;;;4.59;56.83;102441.50;10041779;28;20047;-67
2021/03/20 13:15:27;;;;;;;7.68;3.92;;;;;;;4.48;57.05;102423.34;10060604;28;20400;-64
2021/03/20 13:20:25;;;;;;;8.60;3.70;;;;;;;4.49;57.13;102411.47;10059052;28;20101;-68
2021/03/20 13:25:32;;;;;;;10.10;3.92;;;;;;;4.41;57.15;102427.00;10049002;28;20047;-68
2021/03/20 13:30:32;;;;;;;7.38;4.03;;;;;;;4.35;57.88;102411.69;10058391;28;20047;-66
2021/03/20 13:35:31;;;;;;;8.35;4.18;;;;;;;4.52;57.20;102400.16;10049404;28;20055;-66
2021/03/20 13:40:28;;;;;;;6.65;4.00;;;;;;;4.54;57.66;102398.03;10048698;28;20067;-67
2021/03/20 13:45:29;;;;;;;9.07;4.15;;;;;;;4.51;57.88;102387.69;10047232;28;20051;-66
2021/03/20 13:50:30;;;;;;;7.75;4.57;;;;;;;4.49;59.28;102389.81;10046602;28;20110;-67
2021/03/20 13:55:26;;;;;;;10.13;4.35;;;;;;;4.60;58.81;102397.09;10044217;28;20062;-67
2021/03/20 14:00:23;;;;;;;10.15;4.55;;;;;;;4.67;59.27;102368.00;10044185;28;20082;-69
2021/03/20 14:05:19;;;;;;;9.63;5.25;;;;;;;4.61;59.62;102366.22;10059963;28;20078;-65
2021/03/20 14:10:23;;;;;;;6.47;3.58;;;;;;;4.52;60.61;102352.22;10065172;28;20052;-66
2021/03/20 14:15:20;;;;;;;8.48;4.38;;;;;;;4.58;60.64;102345.03;10048223;28;20073;-65
2021/03/20 14:20:21;;;;;;;9.57;4.95;;;;;;;4.54;61.09;102343.88;10058541;28;20051;-66
2021/03/20 14:25:23;;;;;;;9.20;5.30;;;;;;;4.50;61.53;102334.56;10050656;29;20087;-68
2021/03/20 14:30:26;;;;;;;8.68;4.72;;;;;;;4.62;62.32;102340.81;10059767;28;20044;-66
2021/03/20 14:35:40;;;;;;;9.10;4.68;;;;;;;4.50;62.25;102329.13;10059220;28;20533;-66
2021/03/20 14:40:41;;;;;;;9.82;5.30;;;;;;;4.67;61.67;102315.72;10056522;28;20051;-66
2021/03/20 14:45:37;;;;;;;7.43;4.13;;;;;;;4.70;62.36;102310.63;10050395;29;20051;-66
2021/03/20 14:50:35;;;;;;;7.72;4.72;;;;;;;4.49;63.86;102313.97;10052429;28;20601;-65
2021/03/20 14:55:32;;;;;;;8.98;4.60;;;;;;;4.60;64.10;102288.75;10047316;28;20055;-66
2021/03/20 15:00:33;;;;;;;7.68;4.90;;;;;;;4.65;64.60;102280.72;10052898;28;20582;-67
2021/03/20 15:05:29;;;;;;;8.02;4.85;;;;;;;4.71;64.03;102281.63;10049211;28;20063;-67
2021/03/20 15:10:38;;;;;;;9.30;5.00;;;;;;;4.76;65.09;102271.72;10048714;28;20111;-62
2021/03/20 15:15:34;;;;;;;9.40;4.45;;;;;;;4.60;66.45;102261.66;10048514;29;20059;-66
2021/03/20 15:20:34;;;;;;;8.60;5.10;;;;;;;4.61;66.98;102263.28;10046842;28;20052;-64
2021/03/20 15:25:47;;;;;;;7.05;4.82;;;;;;;4.59;66.73;102233.72;10045922;28;20043;-66
2021/03/20 15:30:44;;;;;;;7.13;4.28;;;;;;;4.47;67.74;102232.13;10045719;29;20078;-66
2021/03/20 15:35:42;;;;;;;10.60;5.93;;;;;;;4.52;68.18;102218.66;10044632;28;20047;-66
2021/03/20 15:40:41;;;;;;;7.50;5.20;;;;;;;4.49;68.93;102211.03;10039139;28;20130;-66
2021/03/20 15:45:38;;;;;;;12.10;5.65;;;;;;;4.63;68.89;102201.56;10049134;28;20055;-65
2021/03/20 15:50:40;;;;;;;11.40;5.47;;;;;;;4.48;72.22;102209.38;10044757;29;20645;-61
2021/03/20 15:55:40;;;;;;;11.05;6.75;;;;;;;4.32;74.42;102184.72;10046913;28;20071;-66
2021/03/20 16:00:37;;;;;;;9.88;6.35;;;;;;;4.35;74.60;102195.03;10043821;29;20233;-62
2021/03/20 16:05:34;;;;;;;9.32;6.20;;;;;;;4.44;74.59;102184.66;10047112;28;20054;-67
2021/03/20 16:10:33;;;;;;;10.50;6.85;;;;;;;4.30;75.47;102180.59;10042309;28;20102;-67
2021/03/20 16:15:30;;;;;;;11.75;7.60;;;;;;;4.33;76.08;102171.97;10041368;29;20126;-65
2021/03/20 16:20:31;;;;;;;14.93;8.15;;;;;;;4.30;78.66;102165.16;10044351;28;20102;-65
2021/03/20 16:25:28;;;;;;;12.07;6.07;;;;;;;4.11;80.07;102161.00;10042089;28;20508;-61
2021/03/20 16:30:31;;;;;;;11.13;8.07;;;;;;;4.08;81.94;102161.44;10043037;28;20134;-66
2021/03/20 16:35:28;;;;;;;13.15;8.82;;;;;;;4.03;83.16;102147.81;10045816;28;20543;-67
2021/03/20 16:40:24;;;;;;;13.57;9.27;;;;;;;3.97;83.73;102145.00;10032011;28;20149;-66
2021/03/20 16:45:22;;;;;;;12.27;8.02;;;;;;;3.84;85.20;102134.44;10042030;29;20051;-66
2021/03/20 16:50:21;;;;;;;15.27;11.35;;;;;;;3.99;85.08;102121.25;10061496;28;20152;-65
2021/03/20 16:55:20;;;;;;;13.82;10.43;;;;;;;3.91;85.93;102110.78;10051512;28;20059;-67
2021/03/20 17:00:29;;;;;;;17.42;12.63;;;;;;;3.84;87.38;102107.38;10047893;29;20058;-67
2021/03/20 17:05:25;;;;;;;17.10;12.45;;;;;;;3.96;86.60;102097.34;10043122;28;20051;-63
2021/03/20 17:10:23;;;;;;;17.58;12.90;;;;;;;3.88;87.77;102086.91;10051940;28;20561;-67
2021/03/20 17:15:21;;;;;;;19.75;13.10;;;;;;;3.87;87.56;102079.84;10050375;28;20219;-67
2021/03/20 17:20:27;;;;;;;19.75;12.80;;;;;;;3.85;88.19;102076.53;10044806;28;20102;-66
2021/03/20 17:25:25;;;;;;;19.88;14.43;;;;;;;3.88;89.18;102070.66;10054503;28;20803;-67
2021/03/20 17:30:25;;;;;;;15.43;11.88;;;;;;;3.81;89.16;102061.88;10049380;28;20444;-66
2021/03/20 17:35:21;;;;;;;15.65;11.02;;;;;;;3.75;89.46;102065.53;10047381;28;20388;-66
2021/03/20 17:40:18;;;;;;;22.20;14.85;;;;;;;3.69;89.57;102064.59;10046344;28;20519;-66
2021/03/20 17:45:16;;;;;;;17.75;14.23;;;;;;;3.80;89.90;102030.44;10045904;28;20075;-65
2021/03/20 17:50:40;;;;;;;19.25;14.52;;;;;;;3.70;90.02;102046.47;10051466;28;20054;-63
2021/03/20 17:55:36;;;;;;;19.80;15.50;;;;;;;3.76;90.62;102023.88;10048262;28;20044;-65
2021/03/20 18:00:36;;;;;;;18.17;14.00;;;;;;;3.73;90.25;102035.19;10059587;28;20126;-65
2021/03/20 18:05:32;;;;;;;20.85;15.32;;;;;;;3.76;90.15;102021.16;10054635;28;20411;-65
2021/03/20 18:10:50;;;;;;;23.50;15.13;;;;;;;3.72;90.93;102038.97;10059102;28;20134;-65
2021/03/20 18:15:47;;;;;;;20.55;14.35;;;;;;;3.78;91.11;102016.34;10062323;28;20146;-65
2021/03/20 18:20:44;;;;;;;21.30;14.77;;;;;;;3.76;91.38;102013.88;10053691;28;20483;-65
2021/03/20 18:25:40;;;;;;;22.50;16.17;;;;;;;3.78;91.45;102016.34;10041292;28;20078;-62
2021/03/20 18:30:43;;;;;;;21.20;13.90;;;;;;;3.76;91.80;102023.88;10048994;28;20055;-64
2021/03/20 18:35:39;;;;;;;21.55;15.18;;;;;;;3.79;92.10;102012.59;10043765;28;20070;-64
2021/03/20 18:40:37;;;;;;;18.90;14.05;;;;;;;3.89;91.83;102006.53;10039675;28;20543;-66
2021/03/20 18:45:33;;;;;;;19.33;15.07;;;;;;;3.88;91.91;102005.72;10041199;28;20043;-65
2021/03/20 18:50:33;;;;;;;21.98;16.05;;;;;;;3.87;91.88;102003.25;10049725;29;20051;-63
2021/03/20 18:55:30;;;;;;;19.55;15.05;;;;;;;3.85;91.78;102006.19;10046898;28;20055;-65
2021/03/20 19:00:31;;;;;;;21.55;17.17;;;;;;;3.94;92.53;102004.75;10042784;28;20103;-63
2021/03/20 19:05:27;;;;;;;23.48;16.48;;;;;;;4.00;92.62;101987.56;10053985;28;20059;-63
2021/03/20 19:10:30;;;;;;;21.27;15.93;;;;;;;3.99;92.40;101991.34;10048715;28;20129;-66
2021/03/20 19:15:34;;;;;;;18.50;15.10;;;;;;;4.07;92.93;101986.59;10041514;29;20083;-65
2021/03/20 19:20:36;;;;;;;16.73;13.02;;;;;;;4.12;92.75;101984.78;10042819;28;20059;-66
2021/03/20 19:25:58;;;;;;;;;;;;;;;;;;;;;
2021/03/20 19:30:56;;;;;;;7.00;4.60;;;;;;;4.12;92.07;101973.13;10041522;28;20055;-65
2021/03/20 19:36:00;;;;;;;5.97;3.30;;;;;;;4.17;91.68;101973.22;10039788;28;20694;-63
2021/03/20 19:41:03;;;;;;;6.95;3.80;;;;;;;4.18;91.16;101961.34;10048881;28;20047;-64
2021/03/20 19:46:32;;;;;;;5.50;2.60;;;;;;;4.16;90.73;101968.88;9978755;28;20051;-65
2021/03/20 19:51:28;;;;;;;3.92;1.90;;;;;;;4.09;89.59;101979.06;10024282;28;20105;-65
2021/03/20 19:56:25;;;;;;;5.95;1.45;;;;;;;4.06;89.68;101963.28;10057567;28;20059;-64
2021/03/20 20:01:27;;;;;;;6.28;3.50;;;;;;;4.12;90.01;101956.91;10053680;28;20486;-65
2021/03/20 20:06:30;;;;;;;6.20;3.40;;;;;;;4.09;90.13;101963.63;10034177;28;20046;-63
2021/03/20 20:11:26;;;;;;;9.88;4.63;;;;;;;4.08;90.48;101955.75;10044444;29;20063;-65
2021/03/20 20:16:33;;;;;;;5.85;3.20;;;;;;;4.00;90.35;101949.66;10042194;28;20206;-64
2021/03/20 20:22:08;;;;;;;6.72;4.07;;;;;;;3.95;90.02;101936.03;10047217;28;20574;-65
2021/03/20 20:27:52;;;;;;;8.13;4.67;;;;;;;3.96;90.47;101932.25;10022670;28;20047;-65
2021/03/20 20:33:27;;;;;;;6.70;3.03;;;;;;;3.98;89.34;101924.72;10037650;29;20051;-63
2021/03/20 20:38:26;;;;;;;8.55;4.22;;;;;;;3.93;89.48;101916.53;10043438;28;20645;-63
2021/03/20 20:43:39;;;;;;;6.40;4.18;;;;;;;3.99;89.06;101895.78;10040469;29;20059;-65
2021/03/20 20:48:48;;;;;;;7.03;3.20;;;;;;;3.93;89.67;101897.59;10049948;28;20583;-64
2021/03/20 20:53:49;;;;;;;4.75;2.90;;;;;;;3.96;90.29;101883.56;10053406;28;20059;-65
2021/03/20 20:59:04;;;;;;;5.13;2.70;;;;;;;3.90;89.43;101881.84;10052750;28;20051;-67
2021/03/20 21:04:05;;;;;;;4.95;2.65;;;;;;;3.93;89.47;101875.94;10043474;28;20055;-62
2021/03/20 21:09:02;;;;;;;5.35;3.25;;;;;;;3.89;89.41;101858.53;10046987;28;20161;-65
2021/03/20 21:14:05;;;;;;;5.13;2.70;;;;;;;3.92;89.53;101855.38;10043419;28;20051;-66
2021/03/20 21:19:02;;;;;;;2.92;1.92;;;;;;;3.94;89.34;101836.97;10047992;28;20515;-64
2021/03/20 21:24:01;;;;;;;6.38;2.42;;;;;;;3.94;89.78;101847.78;10037322;28;20507;-62
2021/03/20 21:29:00;;;;;;;4.95;2.50;;;;;;;3.89;89.81;101850.41;10040861;28;20071;-64
2021/03/20 21:33:59;;;;;;;4.72;2.38;;;;;;;3.87;89.54;101847.13;10040383;28;20064;-61
2021/03/20 21:38:56;;;;;;;5.45;2.65;;;;;;;3.91;88.64;101826.66;10034181;29;20059;-64
2021/03/20 21:43:57;;;;;;;5.80;2.33;;;;;;;3.88;89.40;101827.16;10032888;28;20150;-65
2021/03/20 21:49:03;;;;;;;3.70;1.95;;;;;;;3.84;90.07;101809.75;10026533;28;20062;-64
2021/03/20 21:54:01;;;;;;;6.32;3.05;;;;;;;3.86;90.37;101806.81;10036963;28;20866;-62
2021/03/20 21:58:57;;;;;;;9.20;4.22;;;;;;;3.89;90.42;101796.31;10037098;28;20047;-65
2021/03/20 22:03:54;;;;;;;4.95;2.92;;;;;;;3.90;90.70;101781.72;10042204;28;22230;-66
2021/03/20 22:08:51;;;;;;;6.75;4.35;;;;;;;3.98;90.04;101800.25;10043183;28;20090;-64
2021/03/20 22:13:48;;;;;;;4.70;3.22;;;;;;;3.97;90.29;101793.19;10042509;29;20134;-64
2021/03/20 22:18:44;;;;;;;5.18;2.35;;;;;;;3.91;91.34;101805.00;10036952;29;20087;-65
2021/03/20 22:23:45;;;;;;;6.53;3.13;;;;;;;3.95;91.15;101794.53;10034693;29;20078;-63
2021/03/20 22:28:41;;;;;;;5.82;3.22;;;;;;;3.93;91.60;101797.47;10033695;28;20137;-62
2021/03/20 22:33:39;;;;;;;6.13;2.45;;;;;;;3.95;91.91;101779.09;10048490;28;20139;-67
2021/03/20 22:38:36;;;;;;;4.90;2.55;;;;;;;3.96;91.75;101780.72;10043169;28;20075;-69
2021/03/20 22:43:42;;;;;;;6.30;2.88;;;;;;;3.95;91.47;101783.69;10044490;29;20057;-64
2021/03/20 22:48:41;;;;;;;11.38;5.80;;;;;;;3.96;91.47;101764.47;10034073;28;20044;-65
2021/03/20 22:53:37;;;;;;;7.97;4.63;;;;;;;3.96;91.95;101752.84;10034736;29;20432;-64
2021/03/20 22:58:33;;;;;;;9.48;4.00;;;;;;;4.02;91.95;101756.47;10047669;28;20523;-67
2021/03/20 23:03:46;;;;;;;5.45;2.50;;;;;;;3.99;92.25;101758.59;10048835;29;20094;-67
2021/03/20 23:08:49;;;;;;;8.23;4.28;;;;;;;4.02;92.44;101748.34;10054371;28;20059;-66
2021/03/20 23:13:49;;;;;;;6.72;2.70;;;;;;;3.97;92.52;101755.31;10051181;28;20566;-69
2021/03/20 23:18:45;;;;;;;8.68;4.43;;;;;;;3.99;92.85;101742.34;10051093;28;20059;-69
2021/03/20 23:23:41;;;;;;;9.00;5.07;;;;;;;3.97;92.45;101733.66;10052937;28;20452;-70